sensor_id;sensor_type;location;lat;lon;timestamp;pressure;altitude;pressure_sealevel;temperature;humidity
59329;BME280;45100;46.926;7.452;2023-04-06T00:02:02;95474.28;;;1.92;64.36
59329;BME280;45100;46.926;7.452;2023-04-06T00:04:33;95473.34;;;1.91;65.08
59329;BME280;45100;46.926;7.452;2023-04-06T00:07:04;95471.61;;;1.91;64.50
59329;BME280;45100;46.926;7.452;2023-04-06T00:09:35;95472.00;;;1.90;64.62
59329;BME280;45100;46.926;7.452;2023-04-06T00:12:06;95471.16;;;1.85;63.39
59329;BME280;45100;46.926;7.452;2023-04-06T00:14:36;95475.79;;;1.82;64.02
59329;BME280;45100;46.926;7.452;2023-04-06T00:17:07;95474.81;;;1.79;64.01
59329;BME280;45100;46.926;7.452;2023-04-06T00:19:37;95477.67;;;1.75;64.63
59329;BME280;45100;46.926;7.452;2023-04-06T00:22:08;95473.66;;;1.71;64.30
59329;BME280;45100;46.926;7.452;2023-04-06T00:24:39;95471.62;;;1.65;64.58
59329;BME280;45100;46.926;7.452;2023-04-06T00:27:10;95467.74;;;1.61;63.87
59329;BME280;45100;46.926;7.452;2023-04-06T00:29:40;95476.41;;;1.58;64.15
59329;BME280;45100;46.926;7.452;2023-04-06T00:32:11;95469.58;;;1.54;64.17
59329;BME280;45100;46.926;7.452;2023-04-06T00:34:41;95476.18;;;1.54;65.43
59329;BME280;45100;46.926;7.452;2023-04-06T00:37:12;95475.24;;;1.53;65.23
59329;BME280;45100;46.926;7.452;2023-04-06T00:39:43;95470.62;;;1.53;65.94
59329;BME280;45100;46.926;7.452;2023-04-06T00:42:14;95466.05;;;1.52;64.94
59329;BME280;45100;46.926;7.452;2023-04-06T00:44:45;95467.95;;;1.52;65.58
59329;BME280;45100;46.926;7.452;2023-04-06T00:47:14;95461.83;;;1.51;66.29
59329;BME280;45100;46.926;7.452;2023-04-06T00:49:45;95464.70;;;1.51;64.86
59329;BME280;45100;46.926;7.452;2023-04-06T00:52:16;95461.28;;;1.51;65.15
59329;BME280;45100;46.926;7.452;2023-04-06T00:54:46;95466.06;;;1.52;65.71
59329;BME280;45100;46.926;7.452;2023-04-06T00:57:17;95459.91;;;1.52;65.38
59329;BME280;45100;46.926;7.452;2023-04-06T00:59:47;95460.08;;;1.51;64.95
59329;BME280;45100;46.926;7.452;2023-04-06T01:02:18;95450.44;;;1.48;64.57
59329;BME280;45100;46.926;7.452;2023-04-06T01:04:48;95446.75;;;1.46;64.77
59329;BME280;45100;46.926;7.452;2023-04-06T01:07:19;95448.45;;;1.44;64.11
59329;BME280;45100;46.926;7.452;2023-04-06T01:09:53;95442.75;;;1.39;64.04
59329;BME280;45100;46.926;7.452;2023-04-06T01:12:21;95443.42;;;1.34;64.91
59329;BME280;45100;46.926;7.452;2023-04-06T01:14:51;95439.39;;;1.29;65.27
59329;BME280;45100;46.926;7.452;2023-04-06T01:17:22;95439.86;;;1.26;65.09
59329;BME280;45100;46.926;7.452;2023-04-06T01:19:54;95435.80;;;1.23;65.49
59329;BME280;45100;46.926;7.452;2023-04-06T01:22:24;95435.45;;;1.20;66.53
59329;BME280;45100;46.926;7.452;2023-04-06T01:24:54;95433.28;;;1.18;66.86
59329;BME280;45100;46.926;7.452;2023-04-06T01:27:27;95430.31;;;1.14;67.48
59329;BME280;45100;46.926;7.452;2023-04-06T01:29:55;95430.14;;;1.13;68.00
59329;BME280;45100;46.926;7.452;2023-04-06T01:32:26;95431.63;;;1.10;68.14
59329;BME280;45100;46.926;7.452;2023-04-06T01:34:56;95434.81;;;1.06;68.00
59329;BME280;45100;46.926;7.452;2023-04-06T01:37:26;95432.97;;;1.03;68.62
59329;BME280;45100;46.926;7.452;2023-04-06T01:39:57;95428.88;;;1.01;67.74
59329;BME280;45100;46.926;7.452;2023-04-06T01:42:29;95427.00;;;0.99;67.78
59329;BME280;45100;46.926;7.452;2023-04-06T01:44:58;95426.33;;;0.96;67.49
59329;BME280;45100;46.926;7.452;2023-04-06T01:47:30;95426.73;;;0.93;67.98
59329;BME280;45100;46.926;7.452;2023-04-06T01:49:59;95425.66;;;0.88;68.87
59329;BME280;45100;46.926;7.452;2023-04-06T01:52:30;95427.27;;;0.86;69.16
59329;BME280;45100;46.926;7.452;2023-04-06T01:55:01;95427.69;;;0.86;69.11
59329;BME280;45100;46.926;7.452;2023-04-06T01:57:32;95426.02;;;0.85;69.72
59329;BME280;45100;46.926;7.452;2023-04-06T02:00:04;95423.57;;;0.87;68.65
59329;BME280;45100;46.926;7.452;2023-04-06T02:02:33;95423.41;;;0.84;67.47
59329;BME280;45100;46.926;7.452;2023-04-06T02:05:04;95416.66;;;0.77;68.02
59329;BME280;45100;46.926;7.452;2023-04-06T02:07:34;95420.18;;;0.67;67.79
59329;BME280;45100;46.926;7.452;2023-04-06T02:10:11;95420.81;;;0.59;68.24
59329;BME280;45100;46.926;7.452;2023-04-06T02:12:35;95419.80;;;0.54;68.60
59329;BME280;45100;46.926;7.452;2023-04-06T02:15:07;95417.07;;;0.52;68.99
59329;BME280;45100;46.926;7.452;2023-04-06T02:17:37;95418.27;;;0.54;69.80
59329;BME280;45100;46.926;7.452;2023-04-06T02:22:41;95414.25;;;0.58;70.38
59329;BME280;45100;46.926;7.452;2023-04-06T02:25:12;95421.11;;;0.60;70.67
59329;BME280;45100;46.926;7.452;2023-04-06T02:27:42;95415.39;;;0.60;70.61
59329;BME280;45100;46.926;7.452;2023-04-06T02:30:13;95417.11;;;0.62;70.29
59329;BME280;45100;46.926;7.452;2023-04-06T02:32:43;95415.23;;;0.64;71.25
59329;BME280;45100;46.926;7.452;2023-04-06T02:35:15;95413.95;;;0.65;69.88
59329;BME280;45100;46.926;7.452;2023-04-06T02:37:45;95411.66;;;0.64;69.56
59329;BME280;45100;46.926;7.452;2023-04-06T02:40:16;95414.23;;;0.62;69.97
59329;BME280;45100;46.926;7.452;2023-04-06T02:42:46;95415.84;;;0.62;70.21
59329;BME280;45100;46.926;7.452;2023-04-06T02:45:17;95416.02;;;0.61;69.96
59329;BME280;45100;46.926;7.452;2023-04-06T02:47:48;95414.80;;;0.58;69.51
59329;BME280;45100;46.926;7.452;2023-04-06T02:50:19;95413.80;;;0.56;69.72
59329;BME280;45100;46.926;7.452;2023-04-06T02:52:50;95418.09;;;0.51;69.08
59329;BME280;45100;46.926;7.452;2023-04-06T02:57:54;95412.14;;;0.47;69.59
59329;BME280;45100;46.926;7.452;2023-04-06T03:00:24;95412.56;;;0.46;69.37
59329;BME280;45100;46.926;7.452;2023-04-06T03:02:55;95411.31;;;0.45;69.76
59329;BME280;45100;46.926;7.452;2023-04-06T03:05:25;95409.63;;;0.45;70.10
59329;BME280;45100;46.926;7.452;2023-04-06T03:07:56;95407.13;;;0.43;70.24
59329;BME280;45100;46.926;7.452;2023-04-06T03:10:27;95401.50;;;0.42;70.08
59329;BME280;45100;46.926;7.452;2023-04-06T03:12:58;95403.34;;;0.42;70.94
59329;BME280;45100;46.926;7.452;2023-04-06T03:15:28;95399.70;;;0.42;70.58
59329;BME280;45100;46.926;7.452;2023-04-06T03:17:59;95402.38;;;0.43;70.24
59329;BME280;45100;46.926;7.452;2023-04-06T03:20:30;95401.41;;;0.40;70.26
59329;BME280;45100;46.926;7.452;2023-04-06T03:23:00;95402.19;;;0.37;70.92
59329;BME280;45100;46.926;7.452;2023-04-06T03:25:31;95404.64;;;0.37;71.51
59329;BME280;45100;46.926;7.452;2023-04-06T03:28:02;95402.89;;;0.37;71.03
59329;BME280;45100;46.926;7.452;2023-04-06T03:30:32;95409.12;;;0.39;71.00
59329;BME280;45100;46.926;7.452;2023-04-06T03:33:03;95405.70;;;0.39;70.64
59329;BME280;45100;46.926;7.452;2023-04-06T03:35:34;95404.38;;;0.38;70.19
59329;BME280;45100;46.926;7.452;2023-04-06T03:38:04;95404.78;;;0.34;70.30
59329;BME280;45100;46.926;7.452;2023-04-06T03:40:35;95403.34;;;0.29;70.47
59329;BME280;45100;46.926;7.452;2023-04-06T03:43:06;95400.87;;;0.26;71.15
59329;BME280;45100;46.926;7.452;2023-04-06T03:45:37;95401.70;;;0.23;71.79
59329;BME280;45100;46.926;7.452;2023-04-06T03:48:07;95406.44;;;0.22;71.23
59329;BME280;45100;46.926;7.452;2023-04-06T03:50:38;95409.47;;;0.20;71.36
59329;BME280;45100;46.926;7.452;2023-04-06T03:53:09;95406.42;;;0.19;72.47
59329;BME280;45100;46.926;7.452;2023-04-06T03:55:39;95412.78;;;0.17;72.03
59329;BME280;45100;46.926;7.452;2023-04-06T03:58:10;95411.98;;;0.13;72.04
59329;BME280;45100;46.926;7.452;2023-04-06T04:00:41;95413.70;;;0.10;72.20
59329;BME280;45100;46.926;7.452;2023-04-06T04:03:12;95416.27;;;0.10;72.00
59329;BME280;45100;46.926;7.452;2023-04-06T04:05:42;95418.06;;;0.07;72.18
59329;BME280;45100;46.926;7.452;2023-04-06T04:08:12;95422.45;;;0.06;72.66
59329;BME280;45100;46.926;7.452;2023-04-06T04:10:43;95422.39;;;0.04;72.17
59329;BME280;45100;46.926;7.452;2023-04-06T04:13:14;95421.14;;;0.04;72.18
59329;BME280;45100;46.926;7.452;2023-04-06T04:15:45;95421.48;;;0.02;72.40
59329;BME280;45100;46.926;7.452;2023-04-06T04:18:15;95419.36;;;0.01;72.80
59329;BME280;45100;46.926;7.452;2023-04-06T04:20:46;95423.55;;;0.02;72.46
59329;BME280;45100;46.926;7.452;2023-04-06T04:23:17;95430.00;;;0.01;72.35
59329;BME280;45100;46.926;7.452;2023-04-06T04:25:48;95432.77;;;0.01;72.33
59329;BME280;45100;46.926;7.452;2023-04-06T04:28:18;95435.45;;;0.02;72.34
59329;BME280;45100;46.926;7.452;2023-04-06T04:30:48;95438.05;;;0.04;72.37
59329;BME280;45100;46.926;7.452;2023-04-06T04:33:19;95437.75;;;0.04;72.31
59329;BME280;45100;46.926;7.452;2023-04-06T04:35:50;95439.59;;;0.02;72.32
59329;BME280;45100;46.926;7.452;2023-04-06T04:38:20;95446.05;;;0.01;72.32
59329;BME280;45100;46.926;7.452;2023-04-06T04:40:51;95437.59;;;-0.02;72.34
59329;BME280;45100;46.926;7.452;2023-04-06T04:43:22;95443.48;;;-0.03;72.82
59329;BME280;45100;46.926;7.452;2023-04-06T04:45:53;95448.72;;;-0.07;72.69
59329;BME280;45100;46.926;7.452;2023-04-06T04:48:23;95448.18;;;-0.08;72.45
59329;BME280;45100;46.926;7.452;2023-04-06T04:50:55;95446.12;;;-0.08;71.92
59329;BME280;45100;46.926;7.452;2023-04-06T04:53:25;95452.38;;;-0.07;72.01
59329;BME280;45100;46.926;7.452;2023-04-06T04:55:54;95453.06;;;-0.06;71.56
59329;BME280;45100;46.926;7.452;2023-04-06T04:58:26;95449.67;;;-0.07;71.34
59329;BME280;45100;46.926;7.452;2023-04-06T05:00:56;95454.30;;;-0.09;71.05
59329;BME280;45100;46.926;7.452;2023-04-06T05:03:27;95456.70;;;-0.10;71.37
59329;BME280;45100;46.926;7.452;2023-04-06T05:05:57;95462.42;;;-0.09;70.94
59329;BME280;45100;46.926;7.452;2023-04-06T05:08:27;95466.41;;;-0.06;71.28
59329;BME280;45100;46.926;7.452;2023-04-06T05:10:58;95465.61;;;-0.01;71.50
59329;BME280;45100;46.926;7.452;2023-04-06T05:13:29;95470.75;;;0.05;71.20
59329;BME280;45100;46.926;7.452;2023-04-06T05:15:59;95468.08;;;0.08;71.27
59329;BME280;45100;46.926;7.452;2023-04-06T05:18:30;95467.45;;;0.12;71.41
59329;BME280;45100;46.926;7.452;2023-04-06T05:21:01;95468.31;;;0.14;71.36
59329;BME280;45100;46.926;7.452;2023-04-06T05:23:31;95467.22;;;0.17;71.54
59329;BME280;45100;46.926;7.452;2023-04-06T05:26:02;95466.33;;;0.22;71.68
59329;BME280;45100;46.926;7.452;2023-04-06T05:28:32;95465.42;;;0.29;71.45
59329;BME280;45100;46.926;7.452;2023-04-06T05:31:03;95470.14;;;0.36;72.11
59329;BME280;45100;46.926;7.452;2023-04-06T05:33:33;95473.55;;;0.44;71.49
59329;BME280;45100;46.926;7.452;2023-04-06T05:36:08;95470.80;;;0.51;71.02
59329;BME280;45100;46.926;7.452;2023-04-06T05:38:35;95472.11;;;0.59;69.78
59329;BME280;45100;46.926;7.452;2023-04-06T05:41:04;95477.43;;;0.64;69.73
59329;BME280;45100;46.926;7.452;2023-04-06T05:43:36;95482.63;;;0.70;69.66
59329;BME280;45100;46.926;7.452;2023-04-06T05:46:06;95483.95;;;0.76;69.57
59329;BME280;45100;46.926;7.452;2023-04-06T05:48:37;95484.64;;;0.81;69.07
59329;BME280;45100;46.926;7.452;2023-04-06T05:51:08;95485.59;;;0.84;69.63
59329;BME280;45100;46.926;7.452;2023-04-06T05:53:38;95488.16;;;0.88;69.67
59329;BME280;45100;46.926;7.452;2023-04-06T05:56:09;95483.34;;;0.94;69.90
59329;BME280;45100;46.926;7.452;2023-04-06T05:58:40;95483.62;;;1.00;69.42
59329;BME280;45100;46.926;7.452;2023-04-06T06:01:11;95484.51;;;1.04;69.18
59329;BME280;45100;46.926;7.452;2023-04-06T06:03:42;95487.30;;;1.07;69.23
59329;BME280;45100;46.926;7.452;2023-04-06T06:06:13;95488.70;;;1.12;68.74
59329;BME280;45100;46.926;7.452;2023-04-06T06:08:43;95490.78;;;1.16;68.32
59329;BME280;45100;46.926;7.452;2023-04-06T06:11:14;95494.11;;;1.20;67.96
59329;BME280;45100;46.926;7.452;2023-04-06T06:13:45;95499.64;;;1.26;68.23
59329;BME280;45100;46.926;7.452;2023-04-06T06:16:17;95496.70;;;1.33;67.69
59329;BME280;45100;46.926;7.452;2023-04-06T06:18:46;95501.59;;;1.38;67.65
59329;BME280;45100;46.926;7.452;2023-04-06T06:21:17;95503.79;;;1.44;67.45
59329;BME280;45100;46.926;7.452;2023-04-06T06:23:50;95500.36;;;1.48;67.22
59329;BME280;45100;46.926;7.452;2023-04-06T06:26:18;95497.19;;;1.51;66.68
59329;BME280;45100;46.926;7.452;2023-04-06T06:28:48;95496.21;;;1.52;66.18
59329;BME280;45100;46.926;7.452;2023-04-06T06:31:23;95492.34;;;1.54;66.23
59329;BME280;45100;46.926;7.452;2023-04-06T06:33:52;95492.41;;;1.55;66.17
59329;BME280;45100;46.926;7.452;2023-04-06T06:36:20;95492.94;;;1.56;66.41
59329;BME280;45100;46.926;7.452;2023-04-06T06:38:51;95491.53;;;1.59;66.90
59329;BME280;45100;46.926;7.452;2023-04-06T06:41:21;95501.29;;;1.60;66.37
59329;BME280;45100;46.926;7.452;2023-04-06T06:43:52;95501.48;;;1.62;65.94
59329;BME280;45100;46.926;7.452;2023-04-06T06:48:58;95499.49;;;1.65;65.70
59329;BME280;45100;46.926;7.452;2023-04-06T06:51:26;95502.34;;;1.67;65.25
59329;BME280;45100;46.926;7.452;2023-04-06T06:53:56;95502.92;;;1.68;65.14
59329;BME280;45100;46.926;7.452;2023-04-06T06:56:28;95500.28;;;1.70;64.57
59329;BME280;45100;46.926;7.452;2023-04-06T06:58:58;95499.73;;;1.73;65.17
59329;BME280;45100;46.926;7.452;2023-04-06T07:01:29;95497.09;;;1.77;65.48
59329;BME280;45100;46.926;7.452;2023-04-06T07:04:00;95496.82;;;1.82;65.22
59329;BME280;45100;46.926;7.452;2023-04-06T07:06:30;95501.27;;;1.89;64.71
59329;BME280;45100;46.926;7.452;2023-04-06T07:09:01;95505.23;;;1.96;64.51
59329;BME280;45100;46.926;7.452;2023-04-06T07:11:31;95507.33;;;2.03;63.74
59329;BME280;45100;46.926;7.452;2023-04-06T07:14:02;95506.97;;;2.11;62.88
59329;BME280;45100;46.926;7.452;2023-04-06T07:16:33;95512.78;;;2.17;62.92
59329;BME280;45100;46.926;7.452;2023-04-06T07:19:04;95512.98;;;2.22;63.41
59329;BME280;45100;46.926;7.452;2023-04-06T07:21:35;95515.19;;;2.29;63.52
59329;BME280;45100;46.926;7.452;2023-04-06T07:24:06;95510.82;;;2.35;63.43
59329;BME280;45100;46.926;7.452;2023-04-06T07:26:36;95509.62;;;2.39;63.29
59329;BME280;45100;46.926;7.452;2023-04-06T07:29:06;95505.06;;;2.43;63.41
59329;BME280;45100;46.926;7.452;2023-04-06T07:31:37;95501.14;;;2.46;63.19
59329;BME280;45100;46.926;7.452;2023-04-06T07:34:08;95501.60;;;2.53;62.97
59329;BME280;45100;46.926;7.452;2023-04-06T07:36:39;95493.45;;;2.60;62.95
59329;BME280;45100;46.926;7.452;2023-04-06T07:39:10;95493.75;;;2.69;63.14
59329;BME280;45100;46.926;7.452;2023-04-06T07:41:41;95493.11;;;2.78;63.35
59329;BME280;45100;46.926;7.452;2023-04-06T07:44:10;95491.78;;;2.86;63.28
59329;BME280;45100;46.926;7.452;2023-04-06T07:46:41;95490.70;;;2.94;63.04
59329;BME280;45100;46.926;7.452;2023-04-06T07:49:13;95491.82;;;3.02;62.77
59329;BME280;45100;46.926;7.452;2023-04-06T07:51:42;95491.59;;;3.10;62.64
59329;BME280;45100;46.926;7.452;2023-04-06T07:54:13;95491.84;;;3.19;62.63
59329;BME280;45100;46.926;7.452;2023-04-06T07:56:44;95492.58;;;3.26;62.69
59329;BME280;45100;46.926;7.452;2023-04-06T07:59:15;95498.34;;;3.34;62.69
59329;BME280;45100;46.926;7.452;2023-04-06T08:04:20;95502.53;;;3.47;62.30
59329;BME280;45100;46.926;7.452;2023-04-06T08:06:48;95503.47;;;3.53;62.50
59329;BME280;45100;46.926;7.452;2023-04-06T08:09:19;95499.26;;;3.60;62.47
59329;BME280;45100;46.926;7.452;2023-04-06T08:11:50;95494.27;;;3.69;62.38
59329;BME280;45100;46.926;7.452;2023-04-06T08:14:20;95493.18;;;3.81;61.75
59329;BME280;45100;46.926;7.452;2023-04-06T08:16:50;95492.02;;;3.93;61.48
59329;BME280;45100;46.926;7.452;2023-04-06T08:19:21;95497.44;;;4.06;61.34
59329;BME280;45100;46.926;7.452;2023-04-06T08:21:52;95495.30;;;4.21;60.52
59329;BME280;45100;46.926;7.452;2023-04-06T08:24:23;95491.31;;;4.34;60.90
59329;BME280;45100;46.926;7.452;2023-04-06T08:26:54;95494.83;;;4.49;59.18
59329;BME280;45100;46.926;7.452;2023-04-06T08:31:57;95492.77;;;4.70;58.50
59329;BME280;45100;46.926;7.452;2023-04-06T08:34:28;95488.56;;;4.80;58.78
59329;BME280;45100;46.926;7.452;2023-04-06T08:36:59;95490.66;;;4.96;58.49
59329;BME280;45100;46.926;7.452;2023-04-06T08:39:31;95486.17;;;5.12;57.52
59329;BME280;45100;46.926;7.452;2023-04-06T08:42:03;95486.25;;;5.23;55.49
59329;BME280;45100;46.926;7.452;2023-04-06T08:44:32;95488.16;;;5.34;55.55
59329;BME280;45100;46.926;7.452;2023-04-06T08:47:04;95489.30;;;5.46;54.46
59329;BME280;45100;46.926;7.452;2023-04-06T08:52:06;95494.34;;;5.74;53.36
59329;BME280;45100;46.926;7.452;2023-04-06T08:54:35;95491.67;;;5.88;53.15
59329;BME280;45100;46.926;7.452;2023-04-06T08:57:07;95490.03;;;6.00;52.88
59329;BME280;45100;46.926;7.452;2023-04-06T08:59:37;95485.34;;;6.12;51.25
59329;BME280;45100;46.926;7.452;2023-04-06T09:02:14;95483.45;;;6.25;50.87
59329;BME280;45100;46.926;7.452;2023-04-06T09:04:37;95484.75;;;6.39;50.49
59329;BME280;45100;46.926;7.452;2023-04-06T09:07:07;95474.58;;;6.54;49.29
59329;BME280;45100;46.926;7.452;2023-04-06T09:09:48;95474.86;;;6.66;49.36
59329;BME280;45100;46.926;7.452;2023-04-06T09:12:27;95472.04;;;6.80;49.40
59329;BME280;45100;46.926;7.452;2023-04-06T09:14:40;95468.81;;;6.91;48.68
59329;BME280;45100;46.926;7.452;2023-04-06T09:17:21;95469.16;;;7.02;47.65
59329;BME280;45100;46.926;7.452;2023-04-06T09:19:46;95470.52;;;7.11;47.50
59329;BME280;45100;46.926;7.452;2023-04-06T09:22:11;95462.09;;;7.22;47.54
59329;BME280;45100;46.926;7.452;2023-04-06T09:24:43;95463.55;;;7.37;46.27
59329;BME280;45100;46.926;7.452;2023-04-06T09:27:13;95467.34;;;7.47;46.38
59329;BME280;45100;46.926;7.452;2023-04-06T09:30:07;95462.61;;;7.56;46.02
59329;BME280;45100;46.926;7.452;2023-04-06T09:32:28;95460.60;;;7.63;45.29
59329;BME280;45100;46.926;7.452;2023-04-06T09:35:08;95461.88;;;7.72;46.40
59329;BME280;45100;46.926;7.452;2023-04-06T09:37:29;95463.80;;;7.81;44.62
59329;BME280;45100;46.926;7.452;2023-04-06T09:40:05;95459.02;;;7.90;44.46
59329;BME280;45100;46.926;7.452;2023-04-06T09:42:31;95459.12;;;8.01;44.73
59329;BME280;45100;46.926;7.452;2023-04-06T09:45:01;95455.97;;;8.15;44.47
59329;BME280;45100;46.926;7.452;2023-04-06T09:47:32;95459.62;;;8.28;43.99
59329;BME280;45100;46.926;7.452;2023-04-06T09:50:02;95454.47;;;8.39;43.53
59329;BME280;45100;46.926;7.452;2023-04-06T09:52:36;95450.84;;;8.53;41.45
59329;BME280;45100;46.926;7.452;2023-04-06T09:55:04;95451.55;;;8.69;41.98
59329;BME280;45100;46.926;7.452;2023-04-06T09:57:50;95452.31;;;8.85;41.84
59329;BME280;45100;46.926;7.452;2023-04-06T10:00:11;95450.33;;;8.97;41.17
59329;BME280;45100;46.926;7.452;2023-04-06T10:02:59;95448.02;;;9.02;41.39
59329;BME280;45100;46.926;7.452;2023-04-06T10:05:09;95448.59;;;9.08;41.07
59329;BME280;45100;46.926;7.452;2023-04-06T10:07:36;95448.86;;;9.11;41.35
59329;BME280;45100;46.926;7.452;2023-04-06T10:10:07;95448.05;;;9.15;42.32
59329;BME280;45100;46.926;7.452;2023-04-06T10:12:38;95445.47;;;9.29;41.74
59329;BME280;45100;46.926;7.452;2023-04-06T10:15:08;95445.00;;;9.41;38.97
59329;BME280;45100;46.926;7.452;2023-04-06T10:17:36;95440.75;;;9.40;39.65
59329;BME280;45100;46.926;7.452;2023-04-06T10:20:11;95436.44;;;9.52;38.97
59329;BME280;45100;46.926;7.452;2023-04-06T10:22:44;95442.89;;;9.68;38.22
59329;BME280;45100;46.926;7.452;2023-04-06T10:25:09;95436.91;;;9.77;37.73
59329;BME280;45100;46.926;7.452;2023-04-06T10:27:40;95433.45;;;9.74;37.33
59329;BME280;45100;46.926;7.452;2023-04-06T10:30:10;95436.53;;;9.69;36.52
59329;BME280;45100;46.926;7.452;2023-04-06T10:32:40;95437.58;;;9.65;36.56
59329;BME280;45100;46.926;7.452;2023-04-06T10:35:15;95432.35;;;9.64;36.19
59329;BME280;45100;46.926;7.452;2023-04-06T10:38:02;95435.86;;;9.68;35.54
59329;BME280;45100;46.926;7.452;2023-04-06T10:40:22;95435.79;;;9.71;35.38
59329;BME280;45100;46.926;7.452;2023-04-06T10:42:43;95436.62;;;9.75;36.35
59329;BME280;45100;46.926;7.452;2023-04-06T10:45:21;95438.91;;;9.88;35.63
59329;BME280;45100;46.926;7.452;2023-04-06T10:47:45;95433.06;;;9.98;35.43
59329;BME280;45100;46.926;7.452;2023-04-06T10:50:17;95433.80;;;10.10;35.13
59329;BME280;45100;46.926;7.452;2023-04-06T10:52:47;95444.61;;;10.20;33.95
59329;BME280;45100;46.926;7.452;2023-04-06T10:55:17;95446.77;;;10.27;33.94
59329;BME280;45100;46.926;7.452;2023-04-06T10:57:47;95439.88;;;10.30;33.91
59329;BME280;45100;46.926;7.452;2023-04-06T11:00:18;95431.49;;;10.41;32.71
59329;BME280;45100;46.926;7.452;2023-04-06T11:02:49;95429.06;;;10.48;31.73
59329;BME280;45100;46.926;7.452;2023-04-06T11:07:52;95428.16;;;10.60;31.93
59329;BME280;45100;46.926;7.452;2023-04-06T11:10:22;95428.41;;;10.66;31.77
59329;BME280;45100;46.926;7.452;2023-04-06T11:12:54;95427.31;;;10.75;31.16
59329;BME280;45100;46.926;7.452;2023-04-06T11:15:23;95429.19;;;10.81;30.76
59329;BME280;45100;46.926;7.452;2023-04-06T11:17:52;95419.20;;;10.81;29.80
59329;BME280;45100;46.926;7.452;2023-04-06T11:20:23;95424.64;;;10.85;30.39
59329;BME280;45100;46.926;7.452;2023-04-06T11:22:53;95421.05;;;10.90;30.15
59329;BME280;45100;46.926;7.452;2023-04-06T11:25:24;95425.22;;;10.94;29.58
59329;BME280;45100;46.926;7.452;2023-04-06T11:27:55;95431.15;;;10.92;28.55
59329;BME280;45100;46.926;7.452;2023-04-06T11:30:26;95424.18;;;10.81;28.18
59329;BME280;45100;46.926;7.452;2023-04-06T11:33:00;95422.91;;;10.72;28.49
59329;BME280;45100;46.926;7.452;2023-04-06T11:35:26;95416.39;;;10.66;29.19
59329;BME280;45100;46.926;7.452;2023-04-06T11:37:57;95415.70;;;10.63;29.18
59329;BME280;45100;46.926;7.452;2023-04-06T11:40:31;95415.63;;;10.62;29.93
59329;BME280;45100;46.926;7.452;2023-04-06T11:42:59;95416.79;;;10.69;29.54
59329;BME280;45100;46.926;7.452;2023-04-06T11:45:43;95413.17;;;10.78;30.18
59329;BME280;45100;46.926;7.452;2023-04-06T11:48:01;95407.85;;;10.90;29.22
59329;BME280;45100;46.926;7.452;2023-04-06T11:50:33;95400.20;;;11.02;29.75
59329;BME280;45100;46.926;7.452;2023-04-06T11:53:02;95397.09;;;11.17;29.13
59329;BME280;45100;46.926;7.452;2023-04-06T11:55:37;95403.34;;;11.23;28.66
59329;BME280;45100;46.926;7.452;2023-04-06T11:58:02;95400.34;;;11.30;28.31
59329;BME280;45100;46.926;7.452;2023-04-06T12:00:35;95400.38;;;11.34;27.65
59329;BME280;45100;46.926;7.452;2023-04-06T12:05:36;95396.28;;;11.35;26.44
59329;BME280;45100;46.926;7.452;2023-04-06T12:08:06;95392.81;;;11.36;26.07
59329;BME280;45100;46.926;7.452;2023-04-06T12:10:36;95385.99;;;11.35;25.77
59329;BME280;45100;46.926;7.452;2023-04-06T12:13:07;95386.69;;;11.34;26.77
59329;BME280;45100;46.926;7.452;2023-04-06T12:15:38;95383.77;;;11.35;26.45
59329;BME280;45100;46.926;7.452;2023-04-06T12:18:09;95379.43;;;11.38;26.58
59329;BME280;45100;46.926;7.452;2023-04-06T12:20:39;95374.31;;;11.51;26.40
59329;BME280;45100;46.926;7.452;2023-04-06T12:23:10;95373.56;;;11.65;24.51
59329;BME280;45100;46.926;7.452;2023-04-06T12:25:42;95370.73;;;11.62;23.90
59329;BME280;45100;46.926;7.452;2023-04-06T12:28:11;95370.22;;;11.56;24.39
59329;BME280;45100;46.926;7.452;2023-04-06T12:30:41;95377.94;;;11.52;24.75
59329;BME280;45100;46.926;7.452;2023-04-06T12:33:12;95378.22;;;11.39;23.65
59329;BME280;45100;46.926;7.452;2023-04-06T12:35:43;95377.88;;;11.28;24.77
59329;BME280;45100;46.926;7.452;2023-04-06T12:38:13;95372.08;;;11.29;24.32
59329;BME280;45100;46.926;7.452;2023-04-06T12:40:43;95366.84;;;11.39;23.83
59329;BME280;45100;46.926;7.452;2023-04-06T12:43:14;95361.27;;;11.49;23.57
59329;BME280;45100;46.926;7.452;2023-04-06T12:45:45;95363.77;;;11.58;23.43
59329;BME280;45100;46.926;7.452;2023-04-06T12:48:16;95360.48;;;11.70;22.54
59329;BME280;45100;46.926;7.452;2023-04-06T12:50:57;95360.10;;;11.81;22.73
59329;BME280;45100;46.926;7.452;2023-04-06T12:53:16;95353.53;;;11.95;21.63
59329;BME280;45100;46.926;7.452;2023-04-06T12:55:47;95358.30;;;12.07;21.58
59329;BME280;45100;46.926;7.452;2023-04-06T13:00:53;95352.89;;;12.19;21.23
59329;BME280;45100;46.926;7.452;2023-04-06T13:05:55;95350.26;;;12.18;20.81
59329;BME280;45100;46.926;7.452;2023-04-06T13:08:25;95350.26;;;12.18;20.70
59329;BME280;45100;46.926;7.452;2023-04-06T13:10:55;95351.55;;;12.20;20.80
59329;BME280;45100;46.926;7.452;2023-04-06T13:13:28;95350.42;;;12.23;19.95
59329;BME280;45100;46.926;7.452;2023-04-06T13:16:02;95346.28;;;12.26;19.86
59329;BME280;45100;46.926;7.452;2023-04-06T13:18:29;95344.42;;;12.30;20.32
59329;BME280;45100;46.926;7.452;2023-04-06T13:21:00;95347.16;;;12.31;21.02
59329;BME280;45100;46.926;7.452;2023-04-06T13:23:29;95349.87;;;12.37;21.75
59329;BME280;45100;46.926;7.452;2023-04-06T13:26:03;95349.50;;;12.35;22.06
59329;BME280;45100;46.926;7.452;2023-04-06T13:28:30;95338.51;;;12.29;22.26
59329;BME280;45100;46.926;7.452;2023-04-06T13:31:01;95340.30;;;12.28;22.88
59329;BME280;45100;46.926;7.452;2023-04-06T13:33:31;95346.00;;;12.30;22.11
59329;BME280;45100;46.926;7.452;2023-04-06T13:36:01;95338.59;;;12.25;22.09
59329;BME280;45100;46.926;7.452;2023-04-06T13:38:31;95336.16;;;12.20;22.92
59329;BME280;45100;46.926;7.452;2023-04-06T13:41:01;95339.95;;;12.18;23.80
59329;BME280;45100;46.926;7.452;2023-04-06T13:43:32;95338.69;;;12.20;23.76
59329;BME280;45100;46.926;7.452;2023-04-06T13:46:03;95339.23;;;12.23;24.58
59329;BME280;45100;46.926;7.452;2023-04-06T13:48:33;95336.42;;;12.20;24.61
59329;BME280;45100;46.926;7.452;2023-04-06T13:51:10;95340.34;;;12.13;25.12